Time;durP1;ratioP1;P1;durP2;ratioP2;P2;SDS_P1;SDS_P2;PMS_P1;PMS_P2;Temp;Humidity;BMP_temperature;BMP_pressure;BME280_temperature;BME280_humidity;BME280_pressure;Samples;Min_cycle;Max_cycle;Signal;HPM_P1;HPM_P2
2021/03/15 00:01:05;;;;;;;41.40;29.87;;;;;;;3.08;81.06;98667.39;1618751;87;21723;-68
2021/03/15 00:03:34;;;;;;;44.80;30.82;;;;;;;3.00;81.20;98666.76;1605205;87;21190;-69
2021/03/15 00:06:02;;;;;;;44.53;30.85;;;;;;;2.93;81.41;98668.00;1626547;87;21315;-69
2021/03/15 00:08:31;;;;;;;43.23;28.50;;;;;;;2.91;81.46;98674.13;1609570;88;21157;-69
2021/03/15 00:11:00;;;;;;;39.55;28.57;;;;;;;3.01;81.21;98681.80;1595912;88;21217;-68
2021/03/15 00:13:28;;;;;;;45.90;30.77;;;;;;;3.04;81.18;98671.11;1623766;87;21157;-68
2021/03/15 00:15:58;;;;;;;44.73;29.98;;;;;;;2.99;81.39;98677.75;1604030;87;21177;-69
2021/03/15 00:18:26;;;;;;;46.05;29.10;;;;;;;2.95;81.55;98676.61;1623269;87;21246;-69
2021/03/15 00:20:54;;;;;;;41.20;28.35;;;;;;;3.01;81.46;98683.70;1599958;88;21181;-69
2021/03/15 00:23:22;;;;;;;39.40;28.02;;;;;;;3.13;81.17;98680.36;1592531;88;21666;-70
2021/03/15 00:25:50;;;;;;;40.23;29.07;;;;;;;3.12;81.27;98680.06;1586827;89;21186;-69
2021/03/15 00:28:17;;;;;;;41.98;28.80;;;;;;;3.08;81.50;98688.38;1605840;89;21213;-69
2021/03/15 00:30:45;;;;;;;39.38;27.27;;;;;;;3.07;81.67;98688.61;1594296;88;21189;-69
2021/03/15 00:33:13;;;;;;;42.60;28.83;;;;;;;3.21;81.41;98699.28;1604202;89;21210;-69
2021/03/15 00:35:41;;;;;;;42.25;28.65;;;;;;;3.28;81.18;98687.28;1597858;89;21186;-69
2021/03/15 00:38:09;;;;;;;41.45;27.82;;;;;;;3.23;81.23;98689.89;1587777;89;21181;-69
2021/03/15 00:40:37;;;;;;;42.48;27.15;;;;;;;3.19;81.31;98682.59;1602875;89;21206;-68
2021/03/15 00:43:04;;;;;;;38.53;26.37;;;;;;;3.23;81.28;98691.24;1601765;89;21598;-69
2021/03/15 00:45:32;;;;;;;40.38;27.70;;;;;;;3.34;81.02;98680.89;1601890;89;21178;-68
2021/03/15 00:48:01;;;;;;;40.73;28.70;;;;;;;3.31;81.15;98671.98;1597707;89;21243;-68
2021/03/15 00:50:41;;;;;;;43.45;29.72;;;;;;;3.27;81.42;98674.89;1602369;89;21345;-68
2021/03/15 00:53:14;;;;;;;40.23;27.13;;;;;;;3.28;81.53;98665.77;1589799;89;21186;-68
2021/03/15 00:55:41;;;;;;;37.15;26.12;;;;;;;3.42;81.22;98652.74;1593129;88;21203;-69
2021/03/15 00:58:09;;;;;;;39.95;27.93;;;;;;;3.41;81.25;98653.27;1587387;89;21190;-68
2021/03/15 01:00:39;;;;;;;41.98;28.02;;;;;;;3.37;81.33;98651.33;1580367;89;21178;-68
2021/03/15 01:03:21;;;;;;;36.40;26.17;;;;;;;3.36;81.46;98649.72;1789450;79;22975;-69
2021/03/15 01:05:52;;;;;;;38.95;27.73;;;;;;;3.41;81.12;98645.73;1760218;80;21444;-69
2021/03/15 01:08:35;;;;;;;37.48;26.85;;;;;;;3.48;80.86;98636.40;1805558;79;22801;-69
2021/03/15 01:11:04;;;;;;;38.40;28.20;;;;;;;3.35;81.12;98646.21;1771836;80;21727;-69
2021/03/15 01:13:33;;;;;;;41.88;27.52;;;;;;;3.24;81.44;98633.70;1775602;80;21152;-69
2021/03/15 01:16:00;;;;;;;38.60;26.50;;;;;;;3.27;81.32;98635.07;1790619;80;21140;-70
2021/03/15 01:18:29;;;;;;;39.38;27.98;;;;;;;3.32;80.99;98628.42;1774490;80;21133;-70
2021/03/15 01:20:56;;;;;;;38.53;26.97;;;;;;;3.24;81.15;98635.58;1789857;80;21533;-69
2021/03/15 01:23:24;;;;;;;36.25;26.17;;;;;;;3.17;81.37;98638.98;1788836;80;21335;-69
2021/03/15 01:25:51;;;;;;;36.05;26.12;;;;;;;3.21;81.23;98640.12;1791121;80;21116;-70
2021/03/15 01:28:19;;;;;;;37.20;27.17;;;;;;;3.30;80.94;98640.77;1782435;80;21591;-69
2021/03/15 01:30:48;;;;;;;40.05;29.12;;;;;;;3.22;81.14;98639.88;1781694;80;21311;-70
2021/03/15 01:33:16;;;;;;;42.05;28.77;;;;;;;3.15;81.39;98641.12;1775867;80;21576;-69
2021/03/15 01:35:43;;;;;;;37.98;27.22;;;;;;;3.09;81.49;98646.14;1776525;80;21129;-69
2021/03/15 01:38:11;;;;;;;37.90;27.95;;;;;;;3.21;81.17;98649.53;1788528;80;21117;-69
2021/03/15 01:40:39;;;;;;;41.25;29.75;;;;;;;3.23;81.03;98648.20;1786732;80;21662;-69
2021/03/15 01:43:07;;;;;;;42.43;29.12;;;;;;;3.17;81.30;98654.59;1788340;80;21144;-70
2021/03/15 01:45:34;;;;;;;40.20;28.75;;;;;;;3.14;81.43;98648.91;1768013;80;21584;-69
2021/03/15 01:48:04;;;;;;;41.50;28.07;;;;;;;3.23;81.18;98649.55;1768359;80;21200;-69
2021/03/15 01:50:32;;;;;;;38.55;27.05;;;;;;;3.34;80.70;98651.30;1780992;80;21563;-69
2021/03/15 01:53:00;;;;;;;43.30;28.47;;;;;;;3.32;80.93;98656.66;1789310;80;21330;-69
2021/03/15 01:55:28;;;;;;;41.90;28.62;;;;;;;3.30;81.01;98658.77;1777316;80;21168;-69
2021/03/15 01:57:55;;;;;;;38.92;27.48;;;;;;;3.26;81.01;98653.64;1770530;80;21343;-68
2021/03/15 02:00:23;;;;;;;38.23;26.25;;;;;;;3.31;80.78;98658.53;1782680;80;21178;-69
2021/03/15 02:02:56;;;;;;;37.60;26.85;;;;;;;3.39;80.42;98664.02;1787598;80;21132;-69
2021/03/15 02:05:27;;;;;;;39.18;27.45;;;;;;;3.36;80.45;98661.83;1782953;80;21576;-69
2021/03/15 02:07:55;;;;;;;44.20;28.90;;;;;;;3.29;80.90;98657.98;1778706;80;21110;-69
2021/03/15 02:10:22;;;;;;;40.12;27.77;;;;;;;3.30;81.12;98654.73;1781048;80;21144;-69
2021/03/15 02:13:19;;;;;;;38.50;26.95;;;;;;;3.28;81.22;98653.66;1767079;80;21140;-69
2021/03/15 02:16:02;;;;;;;39.35;26.70;;;;;;;3.35;80.73;98656.97;1785552;80;21109;-69
2021/03/15 02:18:53;;;;;;;40.45;29.55;;;;;;;3.33;80.43;98655.05;1768750;80;21337;-69
2021/03/15 02:21:58;;;;;;;42.90;29.18;;;;;;;3.15;80.88;98650.54;1781703;80;21553;-69
2021/03/15 02:24:59;;;;;;;39.70;28.10;;;;;;;2.96;81.33;98660.77;1772594;80;21150;-68
2021/03/15 02:27:50;;;;;;;37.70;26.80;;;;;;;2.98;81.30;98665.36;1767113;80;21262;-68
2021/03/15 02:31:04;;;;;;;41.83;29.05;;;;;;;2.95;81.37;98663.17;1769818;80;21178;-68
2021/03/15 02:34:14;;;;;;;38.73;27.67;;;;;;;2.81;82.02;98650.63;1737762;80;21315;-69
2021/03/15 02:36:43;;;;;;;39.88;27.62;;;;;;;2.79;82.23;98654.10;1768570;80;21121;-68
2021/03/15 02:39:15;;;;;;;40.25;27.55;;;;;;;2.84;82.43;98647.44;1773069;80;21161;-68
2021/03/15 02:41:46;;;;;;;41.37;28.38;;;;;;;2.78;82.78;98643.59;1768746;80;21121;-69
2021/03/15 02:44:13;;;;;;;39.90;27.85;;;;;;;2.73;83.03;98644.87;1763917;80;21195;-69
2021/03/15 02:46:42;;;;;;;39.38;27.32;;;;;;;2.78;83.13;98650.30;1776389;80;21140;-69
2021/03/15 02:49:13;;;;;;;38.58;27.67;;;;;;;2.90;82.78;98637.59;1759934;80;21176;-69
2021/03/15 02:51:40;;;;;;;40.80;28.67;;;;;;;2.87;82.88;98636.74;1760186;80;21149;-69
2021/03/15 02:54:08;;;;;;;45.33;30.57;;;;;;;2.81;83.04;98645.25;1742031;81;21178;-68
2021/03/15 02:56:43;;;;;;;40.17;29.05;;;;;;;2.85;83.06;98647.73;1741744;81;21153;-69
2021/03/15 02:59:11;;;;;;;41.10;28.47;;;;;;;2.93;82.73;98643.80;1773750;80;21167;-69
2021/03/15 03:01:39;;;;;;;46.18;30.62;;;;;;;2.86;82.86;98646.67;1785326;80;21101;-68
2021/03/15 03:04:08;;;;;;;44.70;29.65;;;;;;;2.80;83.02;98646.86;1777967;80;21291;-68
2021/03/15 03:06:37;;;;;;;41.95;29.37;;;;;;;2.78;83.01;98642.24;1782193;80;21509;-69
2021/03/15 03:09:10;;;;;;;42.05;28.85;;;;;;;2.89;82.60;98642.14;1760078;80;21314;-69
2021/03/15 03:11:38;;;;;;;49.05;31.73;;;;;;;2.90;82.53;98634.37;1777515;80;21113;-69
2021/03/15 03:14:07;;;;;;;45.75;31.07;;;;;;;2.84;82.78;98635.34;1748638;80;21324;-68
2021/03/15 03:16:38;;;;;;;47.95;30.55;;;;;;;2.79;82.86;98634.47;1765684;80;21138;-68
2021/03/15 03:19:10;;;;;;;46.42;31.75;;;;;;;2.83;82.65;98626.20;1779039;80;21170;-68
2021/03/15 03:21:39;;;;;;;44.60;31.20;;;;;;;2.92;82.47;98629.55;1783466;80;21117;-69
2021/03/15 03:24:09;;;;;;;48.80;32.23;;;;;;;2.87;82.59;98642.91;1781916;80;21605;-69
2021/03/15 03:27:39;;;;;;;49.70;32.67;;;;;;;2.81;82.88;98646.59;1758216;79;22782;-69
2021/03/15 03:30:08;;;;;;;45.88;30.70;;;;;;;2.83;82.79;98648.52;1712887;82;21176;-69
2021/03/15 03:32:37;;;;;;;48.33;32.05;;;;;;;2.92;82.48;98655.08;1705139;83;21179;-69
2021/03/15 03:35:06;;;;;;;48.98;32.17;;;;;;;2.89;82.62;98656.92;1717810;82;21319;-69
2021/03/15 03:37:34;;;;;;;51.25;32.78;;;;;;;2.87;82.87;98662.28;1700950;83;21169;-69
2021/03/15 03:40:04;;;;;;;46.45;30.43;;;;;;;2.85;82.98;98661.16;1699155;83;21172;-70
2021/03/15 03:42:31;;;;;;;45.75;32.17;;;;;;;2.97;82.60;98662.41;1716819;83;21339;-68
2021/03/15 03:44:59;;;;;;;46.45;31.52;;;;;;;3.01;82.33;98664.33;1704406;83;21125;-68
2021/03/15 03:47:26;;;;;;;50.35;33.42;;;;;;;2.94;82.40;98666.39;1717568;83;21168;-68
2021/03/15 03:49:57;;;;;;;48.60;31.57;;;;;;;2.87;82.52;98660.37;1720176;83;21121;-68
2021/03/15 03:52:27;;;;;;;48.73;32.05;;;;;;;2.92;82.28;98663.14;1705578;83;21168;-69
2021/03/15 03:54:57;;;;;;;47.70;32.25;;;;;;;2.99;82.11;98661.09;1715471;82;21152;-68
2021/03/15 03:57:30;;;;;;;49.45;32.67;;;;;;;2.92;82.35;98665.02;1717747;83;21600;-69
2021/03/15 04:00:01;;;;;;;50.35;31.57;;;;;;;2.87;82.69;98667.66;1707596;83;21541;-69
2021/03/15 04:02:30;;;;;;;49.30;32.53;;;;;;;2.85;82.84;98673.79;1717595;83;21703;-69
2021/03/15 04:05:03;;;;;;;49.77;32.63;;;;;;;2.98;82.63;98682.83;1718865;82;21137;-69
2021/03/15 04:07:31;;;;;;;51.37;31.42;;;;;;;3.05;82.30;98681.34;1721815;83;21464;-69
2021/03/15 04:10:08;;;;;;;51.73;32.73;;;;;;;2.99;82.48;98686.62;1713031;83;21133;-69
2021/03/15 04:12:37;;;;;;;52.17;33.05;;;;;;;2.93;82.58;98690.31;1716530;83;21609;-69
2021/03/15 04:15:06;;;;;;;56.13;34.20;;;;;;;2.90;82.75;98694.85;1718950;83;21174;-69
2021/03/15 04:17:40;;;;;;;51.60;32.00;;;;;;;3.01;82.46;98701.97;1720870;83;21275;-69
2021/03/15 04:20:25;;;;;;;47.53;32.25;;;;;;;3.04;82.30;98706.06;1710335;83;21311;-69
2021/03/15 04:22:55;;;;;;;56.98;33.45;;;;;;;2.98;82.56;98699.78;1718927;83;21738;-69
2021/03/15 04:25:30;;;;;;;56.28;35.10;;;;;;;2.93;82.81;98698.91;1720941;82;21157;-70
2021/03/15 04:27:58;;;;;;;51.33;32.93;;;;;;;3.01;82.65;98701.19;1679779;83;21152;-69
2021/03/15 04:30:26;;;;;;;53.10;33.00;;;;;;;3.15;82.46;98712.39;1705780;83;21302;-70
2021/03/15 04:32:54;;;;;;;53.48;30.90;;;;;;;3.10;82.50;98701.03;1703356;83;21580;-69
2021/03/15 04:35:30;;;;;;;57.43;33.25;;;;;;;3.04;82.71;98706.06;1678353;83;21160;-69
2021/03/15 04:37:59;;;;;;;58.45;34.60;;;;;;;2.98;82.87;98701.12;1712177;83;21120;-70
2021/03/15 04:40:28;;;;;;;64.82;35.38;;;;;;;3.05;82.78;98707.67;1713148;84;21186;-70
2021/03/15 04:43:02;;;;;;;58.55;35.13;;;;;;;3.17;82.48;98705.69;1711941;84;21196;-70
2021/03/15 04:45:33;;;;;;;61.40;34.92;;;;;;;3.12;82.61;98708.30;1662980;84;21375;-68
2021/03/15 04:48:04;;;;;;;61.50;35.50;;;;;;;3.05;82.91;98710.36;1703093;83;21647;-69
2021/03/15 04:50:33;;;;;;;65.30;34.45;;;;;;;3.10;82.89;98701.03;1688799;84;21609;-69
2021/03/15 04:53:02;;;;;;;63.02;36.42;;;;;;;3.20;82.82;98704.38;1689999;84;21168;-69
2021/03/15 04:55:31;;;;;;;70.80;37.67;;;;;;;3.17;83.08;98707.56;1701956;84;21286;-69
2021/03/15 04:58:02;;;;;;;67.72;36.93;;;;;;;3.14;83.44;98710.23;1689298;84;21183;-69
2021/03/15 05:00:29;;;;;;;65.97;35.92;;;;;;;3.24;83.33;98713.05;1676741;84;21204;-69
2021/03/15 05:02:57;;;;;;;73.55;37.23;;;;;;;3.38;83.03;98714.84;1714765;84;21204;-69
2021/03/15 05:05:25;;;;;;;79.05;38.13;;;;;;;3.39;83.25;98719.98;1710304;84;21171;-69
2021/03/15 05:07:52;;;;;;;81.60;40.83;;;;;;;3.40;83.54;98718.11;1714661;84;21646;-70
2021/03/15 05:10:20;;;;;;;77.25;40.33;;;;;;;3.41;83.67;98714.33;1712498;84;21168;-70
2021/03/15 05:12:47;;;;;;;72.87;39.85;;;;;;;3.55;83.39;98715.58;1713867;84;21184;-69
2021/03/15 05:15:15;;;;;;;82.65;37.83;;;;;;;3.64;83.27;98716.78;1693057;84;21140;-70
2021/03/15 05:17:44;;;;;;;80.57;38.65;;;;;;;3.64;83.38;98719.47;1686342;85;21176;-70
2021/03/15 05:20:14;;;;;;;68.72;39.08;;;;;;;3.64;83.43;98717.31;1681775;84;21597;-70
2021/03/15 05:22:43;;;;;;;66.65;37.93;;;;;;;3.72;83.29;98716.31;1705614;84;22682;-70
2021/03/15 05:25:12;;;;;;;73.52;38.63;;;;;;;3.81;82.92;98715.34;1686364;84;21207;-70
2021/03/15 05:27:41;;;;;;;76.28;41.40;;;;;;;3.77;83.06;98716.91;1684302;83;21364;-70
2021/03/15 05:30:11;;;;;;;71.97;38.90;;;;;;;3.71;83.24;98720.09;1718485;83;21190;-70
2021/03/15 05:32:46;;;;;;;65.12;36.95;;;;;;;3.77;83.07;98729.03;1711301;83;21591;-70
2021/03/15 05:35:14;;;;;;;70.20;38.75;;;;;;;3.86;82.81;98726.19;1721460;83;21234;-70
2021/03/15 05:37:42;;;;;;;74.75;40.55;;;;;;;3.79;83.00;98725.01;1710426;83;21141;-70
2021/03/15 05:40:16;;;;;;;71.37;38.35;;;;;;;3.76;83.23;98724.70;1709475;81;21210;-69
2021/03/15 05:43:18;;;;;;;72.32;38.17;;;;;;;3.84;83.08;98722.91;1713910;83;21144;-68
2021/03/15 05:46:08;;;;;;;69.53;37.80;;;;;;;3.95;82.78;98732.20;1703606;83;21624;-66
2021/03/15 05:49:21;;;;;;;73.67;39.45;;;;;;;3.89;82.96;98735.91;1709692;83;21509;-66
2021/03/15 05:52:25;;;;;;;55.58;32.28;;;;;;;3.85;83.28;98744.74;1700589;84;21149;-64
2021/03/15 05:55:17;;;;;;;49.35;29.12;;;;;;;3.97;82.99;98744.87;1701607;84;21643;-69
2021/03/15 05:58:20;;;;;;;52.23;32.55;;;;;;;3.97;82.72;98741.36;1719847;83;21272;-64
2021/03/15 06:01:43;;;;;;;59.33;34.73;;;;;;;3.87;82.90;98747.45;1665403;83;21156;-69
2021/03/15 06:04:44;;;;;;;51.53;31.55;;;;;;;3.79;83.12;98745.20;1719527;81;21395;-63
2021/03/15 06:07:17;;;;;;;48.75;28.80;;;;;;;3.96;82.82;98746.48;1723305;83;21132;-64
2021/03/15 06:10:04;;;;;;;50.55;31.40;;;;;;;3.98;82.51;98751.07;1727471;81;21221;-62
2021/03/15 06:12:56;;;;;;;49.70;30.10;;;;;;;3.88;82.59;98750.44;1724974;83;21443;-64
2021/03/15 06:15:40;;;;;;;49.55;31.87;;;;;;;3.82;82.80;98750.64;1702194;83;21761;-63
2021/03/15 06:18:10;;;;;;;50.00;31.65;;;;;;;3.96;82.57;98751.34;1717723;81;21176;-65
2021/03/15 06:20:39;;;;;;;44.85;29.50;;;;;;;4.05;82.23;98746.30;1721248;83;21168;-65
2021/03/15 06:23:06;;;;;;;52.70;33.83;;;;;;;4.04;82.41;98744.66;1714032;83;21176;-62
2021/03/15 06:25:35;;;;;;;50.52;32.50;;;;;;;4.05;82.38;98740.09;1702429;84;21125;-63
2021/03/15 06:28:04;;;;;;;52.20;33.18;;;;;;;4.17;82.23;98741.59;1697164;84;21707;-63
2021/03/15 06:30:32;;;;;;;52.65;32.95;;;;;;;4.34;81.71;98748.20;1704539;83;21144;-63
2021/03/15 06:33:21;;;;;;;44.90;29.02;;;;;;;4.35;81.75;98750.66;1711777;83;21608;-63
2021/03/15 06:36:02;;;;;;;50.95;32.60;;;;;;;4.34;81.76;98744.98;1724768;83;21185;-63
2021/03/15 06:38:32;;;;;;;51.02;32.40;;;;;;;4.32;81.65;98744.41;1717289;83;21201;-64
2021/03/15 06:41:02;;;;;;;44.00;27.58;;;;;;;4.45;81.13;98746.70;1681886;85;21165;-63
2021/03/15 06:43:30;;;;;;;47.10;29.60;;;;;;;4.56;80.73;98744.09;1687542;83;21605;-63
2021/03/15 06:45:58;;;;;;;52.30;32.48;;;;;;;4.44;80.56;98738.87;1677959;85;21181;-64
2021/03/15 06:48:26;;;;;;;54.90;34.03;;;;;;;4.34;80.68;98738.78;1680523;84;21592;-63
2021/03/15 06:50:55;;;;;;;45.45;29.15;;;;;;;4.42;80.40;98735.09;1687370;85;21161;-63
2021/03/15 06:53:23;;;;;;;41.05;26.90;;;;;;;4.44;80.34;98723.52;1685337;85;21180;-63
2021/03/15 06:55:53;;;;;;;47.13;31.23;;;;;;;4.41;80.51;98723.21;1687334;84;21202;-64
2021/03/15 06:58:28;;;;;;;54.88;33.28;;;;;;;4.40;80.60;98729.66;1685422;84;21125;-64
2021/03/15 07:01:15;;;;;;;56.92;35.78;;;;;;;4.48;80.35;98725.98;1681936;85;21169;-65
2021/03/15 07:03:45;;;;;;;63.50;38.90;;;;;;;4.62;79.94;98722.84;1686762;85;21347;-66
2021/03/15 07:06:14;;;;;;;63.45;37.58;;;;;;;4.68;79.93;98726.66;1687488;85;21315;-65
2021/03/15 07:08:42;;;;;;;63.73;37.10;;;;;;;4.67;79.72;98726.41;1686832;85;21198;-63
2021/03/15 07:11:24;;;;;;;60.88;37.05;;;;;;;4.83;79.49;98725.97;1681447;85;21307;-63
2021/03/15 07:13:52;;;;;;;50.12;31.80;;;;;;;4.93;79.06;98726.85;1666268;85;21204;-67
2021/03/15 07:16:30;;;;;;;55.48;35.33;;;;;;;4.98;78.98;98727.43;1672279;84;21206;-66
2021/03/15 07:19:01;;;;;;;51.55;33.88;;;;;;;4.93;78.54;98724.69;1677479;85;21205;-66
2021/03/15 07:24:12;;;;;;;53.08;35.17;;;;;;;5.10;78.25;98723.98;1801882;79;23048;-67
2021/03/15 07:26:44;;;;;;;53.85;34.50;;;;;;;5.10;78.36;98728.59;1758522;81;21270;-64
2021/03/15 07:29:17;;;;;;;53.00;35.00;;;;;;;5.18;78.25;98725.38;1757246;81;21193;-65
2021/03/15 07:31:49;;;;;;;48.50;32.70;;;;;;;5.45;77.96;98719.34;1758096;80;21172;-65
2021/03/15 07:34:20;;;;;;;53.20;36.00;;;;;;;5.66;77.40;98713.48;1765248;80;21157;-65
2021/03/15 07:36:53;;;;;;;56.10;35.78;;;;;;;5.67;76.74;98717.25;1750013;81;21116;-66
2021/03/15 07:39:25;;;;;;;58.63;37.90;;;;;;;5.59;76.23;98718.31;1756706;81;21727;-65
2021/03/15 07:41:53;;;;;;;55.03;34.35;;;;;;;5.62;76.17;98719.13;1765844;80;21146;-66
2021/03/15 07:44:30;;;;;;;56.25;37.05;;;;;;;5.68;76.34;98715.37;1748535;80;21198;-64
2021/03/15 07:47:01;;;;;;;59.18;38.38;;;;;;;5.70;76.36;98707.83;1747542;80;21144;-66
2021/03/15 07:49:42;;;;;;;58.33;37.48;;;;;;;5.66;76.39;98718.88;1758255;80;21117;-65
2021/03/15 07:52:13;;;;;;;56.18;35.70;;;;;;;5.74;76.37;98715.68;1740585;80;21173;-66
2021/03/15 07:54:43;;;;;;;56.85;36.85;;;;;;;5.86;76.28;98718.98;1749123;81;21198;-65
2021/03/15 07:57:25;;;;;;;56.10;37.08;;;;;;;5.89;76.07;98722.48;1752506;81;21130;-66
2021/03/15 07:59:58;;;;;;;59.93;38.08;;;;;;;5.86;75.80;98718.98;1757853;80;21164;-67
2021/03/15 08:02:28;;;;;;;56.13;36.63;;;;;;;6.00;75.62;98723.61;1756841;81;21668;-67
2021/03/15 08:04:57;;;;;;;61.55;38.40;;;;;;;6.15;75.71;98724.72;1779309;80;21198;-68
2021/03/15 08:07:27;;;;;;;56.48;36.83;;;;;;;6.17;75.38;98722.02;1776817;80;21164;-67
2021/03/15 08:09:56;;;;;;;59.60;39.23;;;;;;;6.23;75.49;98720.16;1756737;80;21231;-66
2021/03/15 08:12:36;;;;;;;57.53;37.33;;;;;;;6.37;74.97;98719.36;1754522;81;21606;-65
2021/03/15 08:15:09;;;;;;;52.43;34.92;;;;;;;6.51;74.57;98726.40;1757425;81;21189;-67
2021/03/15 08:17:44;;;;;;;57.30;37.15;;;;;;;6.55;74.58;98724.78;1754867;81;21641;-66
2021/03/15 08:20:13;;;;;;;53.58;35.78;;;;;;;6.60;74.37;98721.25;1756514;80;21741;-66
2021/03/15 08:22:47;;;;;;;56.37;37.83;;;;;;;6.74;73.71;98726.38;1751455;81;21177;-66
2021/03/15 08:25:15;;;;;;;57.73;38.10;;;;;;;6.87;73.20;98719.09;1737302;82;21319;-67
2021/03/15 08:27:43;;;;;;;58.73;37.63;;;;;;;6.87;73.35;98723.16;1739768;82;21161;-66
2021/03/15 08:30:21;;;;;;;54.53;34.53;;;;;;;6.88;73.00;98724.75;1746107;82;21194;-66
2021/03/15 08:32:49;;;;;;;57.00;36.10;;;;;;;6.87;73.17;98725.29;1743170;81;21110;-65
2021/03/15 08:35:42;;;;;;;61.18;39.95;;;;;;;7.00;72.97;98723.94;1741588;81;21145;-66
2021/03/15 08:38:07;;;;;;;64.90;40.50;;;;;;;6.98;72.57;98725.55;1660939;85;21168;-67
2021/03/15 08:40:44;;;;;;;64.97;41.95;;;;;;;6.89;72.94;98731.80;1645508;87;21210;-65
2021/03/15 08:43:22;;;;;;;69.17;44.42;;;;;;;6.86;73.02;98729.63;1640674;87;21308;-64
2021/03/15 08:46:03;;;;;;;68.50;44.83;;;;;;;6.85;73.08;98730.71;1652389;86;21207;-67
2021/03/15 08:48:47;;;;;;;81.50;49.30;;;;;;;6.99;72.90;98742.06;1628811;87;21375;-68
2021/03/15 08:51:34;;;;;;;85.05;51.48;;;;;;;6.97;72.63;98739.38;1644354;87;21588;-68
2021/03/15 08:54:06;;;;;;;87.65;54.20;;;;;;;6.83;73.14;98743.70;1612063;88;21438;-65
2021/03/15 08:56:38;;;;;;;88.40;52.80;;;;;;;6.74;73.48;98734.50;1639971;86;21138;-66
2021/03/15 08:59:08;;;;;;;89.42;55.98;;;;;;;6.74;73.53;98735.31;1651109;87;21130;-66
2021/03/15 09:01:56;;;;;;;88.25;54.38;;;;;;;6.64;73.83;98734.50;1634516;87;21633;-68
2021/03/15 09:04:40;;;;;;;92.80;54.53;;;;;;;6.62;73.93;98733.97;1643976;87;21630;-68
2021/03/15 09:07:28;;;;;;;86.00;51.68;;;;;;;6.57;74.37;98729.91;1649054;87;21300;-67
2021/03/15 09:10:28;;;;;;;88.33;52.67;;;;;;;6.76;74.41;98733.16;1651204;86;21635;-65
2021/03/15 09:13:12;;;;;;;84.58;51.02;;;;;;;6.90;74.12;98735.59;1643115;86;21543;-65
2021/03/15 09:15:40;;;;;;;93.52;55.63;;;;;;;6.89;73.34;98733.14;1639908;87;21199;-63
2021/03/15 09:18:43;;;;;;;81.63;49.75;;;;;;;6.84;73.41;98731.78;1640562;87;21969;-63
2021/03/15 09:21:29;;;;;;;82.97;49.83;;;;;;;6.89;73.55;98728.55;1642866;86;21368;-64
2021/03/15 09:23:59;;;;;;;86.92;53.25;;;;;;;6.93;73.28;98730.17;1646078;87;21555;-65
2021/03/15 09:26:32;;;;;;;89.03;53.65;;;;;;;6.83;73.55;98731.00;1641779;87;21199;-65
2021/03/15 09:28:59;;;;;;;83.00;50.38;;;;;;;6.71;73.65;98727.74;1646940;87;21206;-65
2021/03/15 09:31:27;;;;;;;88.95;53.60;;;;;;;6.54;74.21;98727.20;1641950;87;21141;-66
2021/03/15 09:33:56;;;;;;;90.83;55.20;;;;;;;6.62;74.20;98727.22;1648315;86;21219;-66
2021/03/15 09:36:28;;;;;;;83.78;52.83;;;;;;;6.59;74.51;98727.19;1634301;86;21166;-66
2021/03/15 09:38:57;;;;;;;90.57;52.33;;;;;;;6.60;74.76;98723.95;1627296;87;21176;-67
2021/03/15 09:41:25;;;;;;;82.27;50.63;;;;;;;6.57;74.94;98729.37;1638097;85;21180;-68
2021/03/15 09:43:52;;;;;;;79.32;51.23;;;;;;;6.66;74.34;98732.36;1653039;86;21248;-66
2021/03/15 09:46:29;;;;;;;85.55;51.45;;;;;;;6.73;74.32;98733.69;1647652;87;21228;-67
2021/03/15 09:48:56;;;;;;;84.80;50.23;;;;;;;6.68;74.20;98732.88;1645767;87;21330;-65
2021/03/15 09:51:27;;;;;;;83.58;51.10;;;;;;;6.57;74.50;98734.77;1653110;87;21185;-66
2021/03/15 09:54:13;;;;;;;81.87;49.38;;;;;;;6.52;74.71;98739.38;1642786;87;21196;-66
2021/03/15 09:56:42;;;;;;;79.70;48.60;;;;;;;6.53;74.73;98733.69;1633504;87;21185;-64
2021/03/15 09:59:23;;;;;;;75.05;46.50;;;;;;;6.52;75.07;98732.62;1744397;79;22718;-67
2021/03/15 10:01:52;;;;;;;75.90;46.28;;;;;;;6.38;75.23;98734.48;1715058;83;21153;-63
2021/03/15 10:04:44;;;;;;;69.30;43.48;;;;;;;6.45;75.19;98740.44;1773169;79;21614;-64
2021/03/15 10:07:41;;;;;;;76.50;45.10;;;;;;;6.50;75.32;98732.34;1798753;79;22494;-66
2021/03/15 10:10:28;;;;;;;80.17;46.75;;;;;;;6.42;75.55;98735.57;1728995;81;21170;-67
2021/03/15 10:13:16;;;;;;;68.50;42.40;;;;;;;6.22;75.64;98705.83;1815050;78;23323;-65
2021/03/15 10:15:46;;;;;;;69.05;41.92;;;;;;;6.38;75.46;98733.13;1747040;82;21303;-65
2021/03/15 10:18:33;;;;;;;80.83;48.42;;;;;;;6.38;75.61;98731.78;1740076;80;21715;-66
2021/03/15 10:21:04;;;;;;;80.77;48.95;;;;;;;6.21;76.13;98729.86;1687666;83;21149;-64
2021/03/15 10:23:36;;;;;;;73.35;43.85;;;;;;;6.13;76.60;98729.59;1705911;83;21184;-63
2021/03/15 10:26:05;;;;;;;74.62;45.30;;;;;;;6.16;76.80;98731.76;1665503;83;21181;-63
2021/03/15 10:28:52;;;;;;;77.03;46.48;;;;;;;6.25;76.85;98734.20;1799534;78;22677;-63
2021/03/15 10:31:22;;;;;;;84.70;48.13;;;;;;;6.15;77.33;98731.48;1762680;80;21243;-63
2021/03/15 10:33:51;;;;;;;78.62;46.53;;;;;;;6.06;78.02;98726.34;1762448;80;21121;-64
2021/03/15 10:36:22;;;;;;;77.97;46.92;;;;;;;6.05;77.82;98730.92;1761147;81;21629;-66
2021/03/15 10:38:52;;;;;;;76.12;46.85;;;;;;;5.95;77.94;98699.84;1760736;80;21683;-65
2021/03/15 10:41:20;;;;;;;83.85;48.48;;;;;;;5.98;78.38;98729.02;1780782;80;21156;-69
2021/03/15 10:43:47;;;;;;;75.28;45.80;;;;;;;5.82;78.94;98721.89;1758753;80;21174;-67
2021/03/15 10:46:26;;;;;;;80.60;48.87;;;;;;;5.82;79.31;98722.71;1780460;80;21160;-67
2021/03/15 10:48:56;;;;;;;78.97;49.03;;;;;;;5.85;79.40;98714.61;1768983;80;21575;-67
2021/03/15 10:51:25;;;;;;;80.28;48.78;;;;;;;5.77;79.76;98712.45;1770188;80;21141;-65
2021/03/15 10:53:56;;;;;;;72.37;43.35;;;;;;;5.62;80.18;98705.09;1761035;80;21247;-64
2021/03/15 10:56:26;;;;;;;66.00;42.58;;;;;;;5.58;80.36;98709.40;1766875;80;21722;-63
2021/03/15 10:58:56;;;;;;;71.95;46.20;;;;;;;5.64;80.22;98703.47;1766180;80;21137;-62
2021/03/15 11:01:26;;;;;;;71.07;43.65;;;;;;;5.56;80.72;98701.30;1783015;80;21156;-62
2021/03/15 11:04:10;;;;;;;66.15;41.13;;;;;;;5.52;80.89;98695.62;1745007;80;21152;-62
2021/03/15 11:06:39;;;;;;;63.25;38.83;;;;;;;5.60;80.80;98700.48;1760268;81;21346;-62
2021/03/15 11:09:16;;;;;;;65.97;48.53;;;;;;;5.69;80.53;98691.34;1787211;79;32213;-63
2021/03/15 11:11:54;;;;;;;59.45;39.33;;;;;;;5.87;79.89;98694.41;1764475;80;21150;-63
2021/03/15 11:14:26;;;;;;;55.50;38.35;;;;;;;6.05;79.12;98695.80;1784128;80;21206;-64
2021/03/15 11:17:08;;;;;;;64.15;40.70;;;;;;;5.95;79.45;98700.63;1813876;79;22544;-63
2021/03/15 11:19:52;;;;;;;57.60;38.70;;;;;;;5.75;79.95;98691.63;1756777;81;21178;-64
2021/03/15 11:22:50;;;;;;;61.37;40.65;;;;;;;5.68;80.42;98686.48;1773077;79;22927;-63
2021/03/15 11:25:19;;;;;;;63.52;39.33;;;;;;;5.66;80.29;98687.30;1707738;83;21172;-62
2021/03/15 11:27:51;;;;;;;62.27;39.70;;;;;;;5.60;80.53;98681.59;1718712;83;21185;-63
2021/03/15 11:30:26;;;;;;;68.33;40.78;;;;;;;5.50;80.90;98678.32;1703780;83;21295;-63
2021/03/15 11:33:11;;;;;;;63.00;47.10;;;;;;;5.59;80.90;98672.42;1772680;79;28292;-64
2021/03/15 11:35:46;;;;;;;61.65;41.18;;;;;;;5.86;80.16;98678.46;1734884;81;21506;-63
2021/03/15 11:38:17;;;;;;;60.88;38.78;;;;;;;6.01;79.87;98673.09;1742163;81;21161;-63
2021/03/15 11:40:46;;;;;;;55.43;36.42;;;;;;;6.00;80.00;98677.69;1713638;82;21117;-65
2021/03/15 11:43:16;;;;;;;56.90;37.65;;;;;;;5.96;79.88;98687.39;1749421;81;21125;-64
2021/03/15 11:45:45;;;;;;;61.95;37.05;;;;;;;5.87;80.11;98685.49;1753580;81;21599;-64
2021/03/15 11:48:13;;;;;;;60.65;37.93;;;;;;;5.76;80.73;98687.33;1769284;81;21645;-64
2021/03/15 11:50:45;;;;;;;56.45;35.83;;;;;;;5.77;80.74;98698.94;1755312;81;21313;-65
2021/03/15 11:53:15;;;;;;;60.92;37.50;;;;;;;5.70;80.72;98697.84;1753731;81;21299;-69
2021/03/15 11:55:44;;;;;;;58.42;36.15;;;;;;;5.61;80.99;98706.70;1767715;80;21137;-67
2021/03/15 11:58:15;;;;;;;55.65;34.08;;;;;;;5.53;81.26;98696.69;1750955;81;21151;-65